Weather at Sarandë Airfield

Public forecast

Using degrees Celsius for public forecast. Weather courtesy of forecast.io.

Closest aviation weather report (METAR) to Sarandë Airfield

Closest report is Ioannis Kapodistrias International Airport, 17.5 nm (32.3 km) SSW. Retrieved 2022/01/17 16:20 UTC (38 minutes ago):

LGKR 171620Z 29004KT 9999 SCT025 BKN080 12/09 Q1020 NOSIG

Closest aviation forecast (TAF) to Sarandë Airfield

Closest forecast is Ioannis Kapodistrias International Airport, 17.5 nm (32.3 km) SSW. Retrieved 2022/01/17 12:17 UTC (5 hours ago):

TAF LGKR 171100Z 1712/1812 VRB03KT 9999 SCT030 BECMG 1714/1716 33013KT FEW020 SCT080 TEMPO 1716/1724 33013G23KT PROB30 TEMPO 1714/1718 5000 RA SCT012 BKN025 BKN080